Time;durP1;ratioP1;P1;durP2;ratioP2;P2;SDS_P1;SDS_P2;PMS_P1;PMS_P2;Temp;Humidity;BMP_temperature;BMP_pressure;BME280_temperature;BME280_humidity;BME280_pressure;Samples;Min_cycle;Max_cycle;Signal;HPM_P1;HPM_P2
2021/08/17 00:02:24;;;;;;;13.23;4.30;;;;;;;;;;4992521;28;20117;-64
2021/08/17 00:05:10;;;;;;;14.10;5.25;;;;;;;;;;4992266;28;20568;-65
2021/08/17 00:07:55;;;;;;;16.70;4.22;;;;;;;;;;4988428;28;20054;-64
2021/08/17 00:10:41;;;;;;;16.15;4.85;;;;;;;;;;4985902;28;20068;-65
2021/08/17 00:13:27;;;;;;;20.25;4.72;;;;;;;;;;4990639;28;20050;-64
2021/08/17 00:16:12;;;;;;;17.58;4.97;;;;;;;;;;4953989;29;20055;-64
2021/08/17 00:18:57;;;;;;;13.13;4.35;;;;;;;;;;4970809;28;20057;-65
2021/08/17 00:21:43;;;;;;;16.38;3.83;;;;;;;;;;4992230;28;20089;-65
2021/08/17 00:24:28;;;;;;;21.20;5.53;;;;;;;;;;4992218;28;20038;-65
2021/08/17 00:27:14;;;;;;;15.95;4.05;;;;;;;;;;4992522;28;20050;-64
2021/08/17 00:29:59;;;;;;;12.88;4.07;;;;;;;;;;4989572;28;20065;-65
2021/08/17 00:32:45;;;;;;;16.38;4.20;;;;;;;;;;4992560;28;20055;-64
2021/08/17 00:35:30;;;;;;;19.33;5.20;;;;;;;;;;4992266;28;20097;-64
2021/08/17 00:38:16;;;;;;;16.95;3.40;;;;;;;;;;4990112;28;20046;-65
2021/08/17 00:41:02;;;;;;;16.45;3.67;;;;;;;;;;4992500;28;20053;-64
2021/08/17 00:43:47;;;;;;;15.27;4.28;;;;;;;;;;4992653;28;20062;-64
2021/08/17 00:46:32;;;;;;;12.15;3.47;;;;;;;;;;4992738;28;20046;-64
2021/08/17 00:49:18;;;;;;;11.95;3.63;;;;;;;;;;4991676;28;20434;-64
2021/08/17 00:52:04;;;;;;;12.98;4.32;;;;;;;;;;4992714;28;20072;-64
2021/08/17 00:54:49;;;;;;;16.20;3.85;;;;;;;;;;4992446;28;20054;-64
2021/08/17 00:57:35;;;;;;;12.07;4.13;;;;;;;;;;4989318;28;20065;-64
2021/08/17 01:00:20;;;;;;;16.52;4.07;;;;;;;;;;4990189;28;20054;-64
2021/08/17 01:03:06;;;;;;;18.42;3.58;;;;;;;;;;4992588;28;20050;-65
2021/08/17 01:05:52;;;;;;;17.50;4.95;;;;;;;;;;4994037;28;20425;-64
2021/08/17 01:08:37;;;;;;;11.82;3.63;;;;;;;;;;4993251;28;20112;-64
2021/08/17 01:11:22;;;;;;;11.52;3.65;;;;;;;;;;4996173;28;20050;-64
2021/08/17 01:14:08;;;;;;;15.77;3.58;;;;;;;;;;4995831;28;20412;-65
2021/08/17 01:16:53;;;;;;;11.05;3.05;;;;;;;;;;4995656;28;20130;-65
2021/08/17 01:19:39;;;;;;;16.65;4.35;;;;;;;;;;4993907;28;20054;-65
2021/08/17 01:22:24;;;;;;;20.00;4.10;;;;;;;;;;4995292;28;20516;-65
2021/08/17 01:25:10;;;;;;;11.25;3.55;;;;;;;;;;4994084;28;20406;-65
2021/08/17 01:27:55;;;;;;;15.00;4.03;;;;;;;;;;4995433;28;20172;-65
2021/08/17 01:30:41;;;;;;;15.23;3.70;;;;;;;;;;4993360;28;20046;-65
2021/08/17 01:33:26;;;;;;;11.93;3.53;;;;;;;;;;4995113;28;20057;-65
2021/08/17 01:36:11;;;;;;;18.20;4.00;;;;;;;;;;4995326;28;20088;-65
2021/08/17 01:38:57;;;;;;;14.45;3.75;;;;;;;;;;4993247;28;20460;-65
2021/08/17 01:41:43;;;;;;;15.05;4.35;;;;;;;;;;4994920;28;20513;-65
2021/08/17 01:44:28;;;;;;;13.82;3.72;;;;;;;;;;4994929;28;20125;-65
2021/08/17 01:47:14;;;;;;;16.00;4.32;;;;;;;;;;4994987;28;20057;-65
2021/08/17 01:50:01;;;;;;;15.82;3.92;;;;;;;;;;4993386;28;20061;-65
2021/08/17 01:52:46;;;;;;;14.23;4.05;;;;;;;;;;4991116;28;20049;-65
2021/08/17 01:55:31;;;;;;;11.88;3.45;;;;;;;;;;4974955;28;20053;-65
2021/08/17 01:58:17;;;;;;;12.65;3.08;;;;;;;;;;4975279;28;20046;-65
2021/08/17 02:01:03;;;;;;;13.23;4.05;;;;;;;;;;4986178;28;20509;-65
2021/08/17 02:03:48;;;;;;;15.63;4.57;;;;;;;;;;4994260;28;20048;-65
2021/08/17 02:06:33;;;;;;;14.50;3.53;;;;;;;;;;4994910;28;20053;-65
2021/08/17 02:09:19;;;;;;;15.88;3.78;;;;;;;;;;4994653;28;20439;-65
2021/08/17 02:12:04;;;;;;;13.25;3.00;;;;;;;;;;4992991;28;20571;-65
2021/08/17 02:14:50;;;;;;;17.65;3.75;;;;;;;;;;4994426;28;20042;-65
2021/08/17 02:17:35;;;;;;;12.23;3.15;;;;;;;;;;4993445;28;20046;-64
2021/08/17 02:20:20;;;;;;;13.38;3.00;;;;;;;;;;4992329;28;20061;-65
2021/08/17 02:23:06;;;;;;;12.10;3.15;;;;;;;;;;4994331;28;20043;-64
2021/08/17 02:25:51;;;;;;;13.45;2.92;;;;;;;;;;4992922;28;20558;-64
2021/08/17 02:28:37;;;;;;;12.93;2.28;;;;;;;;;;4993505;28;20053;-64
2021/08/17 02:31:22;;;;;;;9.00;2.47;;;;;;;;;;4991967;28;20051;-64
2021/08/17 02:34:08;;;;;;;9.88;2.75;;;;;;;;;;4993848;28;20073;-64
2021/08/17 02:36:53;;;;;;;9.68;2.70;;;;;;;;;;4993836;28;20627;-64
2021/08/17 02:39:38;;;;;;;11.05;2.20;;;;;;;;;;4994099;28;20047;-65
2021/08/17 02:42:24;;;;;;;10.75;2.58;;;;;;;;;;4992399;28;20077;-64
2021/08/17 02:45:10;;;;;;;11.75;2.22;;;;;;;;;;4993592;28;20057;-64
2021/08/17 02:47:56;;;;;;;10.05;2.60;;;;;;;;;;4993721;28;20125;-64
2021/08/17 02:50:41;;;;;;;6.65;1.80;;;;;;;;;;4993626;28;20052;-64
2021/08/17 02:53:26;;;;;;;7.68;2.00;;;;;;;;;;4992199;28;20649;-65
2021/08/17 02:56:12;;;;;;;15.13;2.10;;;;;;;;;;4993893;28;20444;-64
2021/08/17 02:58:57;;;;;;;14.32;2.97;;;;;;;;;;4994195;28;20050;-65
2021/08/17 03:01:42;;;;;;;17.88;2.88;;;;;;;;;;4993105;28;20050;-64
2021/08/17 03:04:28;;;;;;;9.18;2.42;;;;;;;;;;4993517;28;20515;-65
2021/08/17 03:07:13;;;;;;;14.02;2.40;;;;;;;;;;4994069;28;20049;-65
2021/08/17 03:10:02;;;;;;;8.95;2.03;;;;;;;;;;4994030;28;20053;-65
2021/08/17 03:12:48;;;;;;;9.38;2.50;;;;;;;;;;4992443;28;20049;-64
2021/08/17 03:15:33;;;;;;;10.00;2.35;;;;;;;;;;4993686;28;20181;-65
2021/08/17 03:18:19;;;;;;;10.13;2.30;;;;;;;;;;4993776;28;20438;-64
2021/08/17 03:21:04;;;;;;;14.32;2.55;;;;;;;;;;4993835;28;20055;-64
2021/08/17 03:23:50;;;;;;;9.75;2.10;;;;;;;;;;4992588;28;20177;-65
2021/08/17 03:26:35;;;;;;;9.32;2.10;;;;;;;;;;4993419;28;20519;-65
2021/08/17 03:29:21;;;;;;;8.68;2.08;;;;;;;;;;4993772;28;20050;-64
2021/08/17 03:32:06;;;;;;;14.40;2.92;;;;;;;;;;4992142;28;20057;-65
2021/08/17 03:34:52;;;;;;;11.73;2.28;;;;;;;;;;4993182;28;20042;-65
2021/08/17 03:37:38;;;;;;;11.65;2.08;;;;;;;;;;4993312;28;20046;-64
2021/08/17 03:40:23;;;;;;;12.85;2.72;;;;;;;;;;4993594;28;20497;-65
2021/08/17 03:43:09;;;;;;;15.75;2.53;;;;;;;;;;4990771;28;20090;-65
2021/08/17 03:45:55;;;;;;;11.98;2.55;;;;;;;;;;4993248;28;20070;-65
2021/08/17 03:48:40;;;;;;;13.77;3.00;;;;;;;;;;4993721;28;20394;-65
2021/08/17 03:51:26;;;;;;;10.32;2.90;;;;;;;;;;4992123;28;20432;-65
2021/08/17 03:54:11;;;;;;;11.20;2.55;;;;;;;;;;4993769;28;20124;-64
2021/08/17 03:56:56;;;;;;;12.45;2.55;;;;;;;;;;4993940;28;20038;-64
2021/08/17 03:59:42;;;;;;;15.40;2.88;;;;;;;;;;4993367;28;20133;-64
2021/08/17 04:02:27;;;;;;;11.85;2.47;;;;;;;;;;4991984;28;20413;-64
2021/08/17 04:05:12;;;;;;;13.85;2.92;;;;;;;;;;4993063;28;20086;-64
2021/08/17 04:07:58;;;;;;;13.77;3.28;;;;;;;;;;4993902;28;20057;-64
2021/08/17 04:10:46;;;;;;;11.40;2.45;;;;;;;;;;4993555;28;20505;-64
2021/08/17 04:13:32;;;;;;;13.18;2.20;;;;;;;;;;4991646;28;20054;-64
2021/08/17 04:16:17;;;;;;;13.57;2.95;;;;;;;;;;4993506;28;20042;-65
2021/08/17 04:19:03;;;;;;;8.82;2.80;;;;;;;;;;4993240;28;20137;-64
2021/08/17 04:21:49;;;;;;;10.60;2.00;;;;;;;;;;4993367;28;20069;-65
2021/08/17 04:24:34;;;;;;;12.63;2.97;;;;;;;;;;4988570;28;20057;-64
2021/08/17 04:27:20;;;;;;;11.10;2.15;;;;;;;;;;4993844;28;20058;-64
2021/08/17 04:30:06;;;;;;;12.68;2.50;;;;;;;;;;4993257;28;20050;-64
2021/08/17 04:32:51;;;;;;;6.28;2.50;;;;;;;;;;4991813;28;20127;-65
2021/08/17 04:35:37;;;;;;;13.75;2.30;;;;;;;;;;4992772;28;20053;-65
2021/08/17 04:38:22;;;;;;;8.70;2.85;;;;;;;;;;4993023;28;20049;-64
2021/08/17 04:41:07;;;;;;;14.45;3.25;;;;;;;;;;4993982;28;20054;-64
2021/08/17 04:43:53;;;;;;;14.55;2.75;;;;;;;;;;4957985;28;20054;-65
2021/08/17 04:46:38;;;;;;;12.07;2.83;;;;;;;;;;4982989;28;20552;-64
2021/08/17 04:49:24;;;;;;;12.73;3.00;;;;;;;;;;4996871;28;20070;-64
2021/08/17 04:52:09;;;;;;;12.00;3.03;;;;;;;;;;4994863;28;20042;-64
2021/08/17 04:54:55;;;;;;;12.38;2.95;;;;;;;;;;4996103;28;20054;-64
2021/08/17 04:57:51;;;;;;;15.10;3.58;;;;;;;;;;4996387;28;20057;-64
2021/08/17 05:00:42;;;;;;;10.32;2.78;;;;;;;;;;4995874;28;20520;-64
2021/08/17 05:03:28;;;;;;;12.73;3.00;;;;;;;;;;4992113;28;20042;-64
2021/08/17 05:06:14;;;;;;;14.95;4.05;;;;;;;;;;4995620;28;20043;-64
2021/08/17 05:08:59;;;;;;;8.18;2.60;;;;;;;;;;4995833;28;20050;-64
2021/08/17 05:11:44;;;;;;;12.20;3.33;;;;;;;;;;4995484;28;20062;-64
2021/08/17 05:14:30;;;;;;;14.32;2.92;;;;;;;;;;4992104;28;20405;-64
2021/08/17 05:17:15;;;;;;;11.50;3.17;;;;;;;;;;4993366;28;20061;-64
2021/08/17 05:20:01;;;;;;;11.18;2.97;;;;;;;;;;4995212;28;20062;-64
2021/08/17 05:22:46;;;;;;;11.57;3.53;;;;;;;;;;4992437;28;20049;-64
2021/08/17 05:25:31;;;;;;;11.65;3.38;;;;;;;;;;4995139;28;20050;-64
2021/08/17 05:28:17;;;;;;;11.75;3.33;;;;;;;;;;4995500;28;20042;-64
2021/08/17 05:31:02;;;;;;;10.57;3.70;;;;;;;;;;4995108;28;20543;-64
2021/08/17 05:33:48;;;;;;;12.82;4.05;;;;;;;;;;4992711;28;20054;-64
2021/08/17 05:36:33;;;;;;;14.60;3.67;;;;;;;;;;4994952;28;20062;-65
2021/08/17 05:39:18;;;;;;;9.75;3.78;;;;;;;;;;4995197;28;20057;-64
2021/08/17 05:42:04;;;;;;;9.45;3.80;;;;;;;;;;4995107;28;20050;-64
2021/08/17 05:44:50;;;;;;;14.88;4.38;;;;;;;;;;4991967;28;20062;-65
2021/08/17 05:47:35;;;;;;;16.27;4.35;;;;;;;;;;4993120;28;20057;-64
2021/08/17 05:50:21;;;;;;;15.57;4.65;;;;;;;;;;4990147;28;20051;-64
2021/08/17 05:53:06;;;;;;;14.57;3.92;;;;;;;;;;4976971;28;20050;-64
2021/08/17 05:55:51;;;;;;;17.27;4.57;;;;;;;;;;4975227;28;20437;-64
2021/08/17 05:58:36;;;;;;;12.98;4.65;;;;;;;;;;4975304;28;20047;-64
2021/08/17 06:01:22;;;;;;;13.23;4.40;;;;;;;;;;4963320;28;20502;-64
2021/08/17 06:04:07;;;;;;;19.58;4.25;;;;;;;;;;4955719;28;20581;-64
2021/08/17 06:06:53;;;;;;;11.32;4.20;;;;;;;;;;4956506;28;20057;-65
2021/08/17 06:09:38;;;;;;;17.52;4.43;;;;;;;;;;4969992;28;20039;-64
2021/08/17 06:12:23;;;;;;;12.48;3.83;;;;;;;;;;4972634;28;20050;-64
2021/08/17 06:15:09;;;;;;;12.30;3.80;;;;;;;;;;4974171;28;20061;-65
2021/08/17 06:18:01;;;;;;;12.60;4.07;;;;;;;;;;4974866;28;20049;-64
2021/08/17 06:20:46;;;;;;;12.90;4.63;;;;;;;;;;4975847;28;20042;-64
2021/08/17 06:23:32;;;;;;;13.25;3.65;;;;;;;;;;4993727;28;20042;-64
2021/08/17 06:26:17;;;;;;;10.15;3.13;;;;;;;;;;4990416;28;20137;-65
2021/08/17 06:29:03;;;;;;;14.77;3.95;;;;;;;;;;4994254;28;20046;-65
2021/08/17 06:31:49;;;;;;;7.40;3.58;;;;;;;;;;4992534;28;20065;-65
2021/08/17 06:34:34;;;;;;;10.30;3.35;;;;;;;;;;4993740;28;20078;-64
2021/08/17 06:37:19;;;;;;;7.28;2.67;;;;;;;;;;4994020;28;20042;-65
2021/08/17 06:40:05;;;;;;;10.80;3.70;;;;;;;;;;4993854;28;20409;-65
2021/08/17 06:42:50;;;;;;;8.68;3.85;;;;;;;;;;4989907;28;20034;-65
2021/08/17 06:45:36;;;;;;;7.97;3.22;;;;;;;;;;4988634;28;20679;-65
2021/08/17 06:48:21;;;;;;;7.43;3.55;;;;;;;;;;4993932;28;20046;-64
2021/08/17 06:51:08;;;;;;;6.28;3.20;;;;;;;;;;4991807;28;20046;-65
2021/08/17 06:53:53;;;;;;;7.93;3.42;;;;;;;;;;4974099;28;20059;-65
2021/08/17 06:56:39;;;;;;;9.13;3.30;;;;;;;;;;4974191;28;20054;-65
2021/08/17 06:59:24;;;;;;;16.60;4.10;;;;;;;;;;4974344;28;20050;-65
2021/08/17 07:02:10;;;;;;;9.98;3.53;;;;;;;;;;4977684;28;20482;-64
2021/08/17 07:04:55;;;;;;;8.52;3.85;;;;;;;;;;4973672;28;20050;-65
2021/08/17 07:07:41;;;;;;;10.70;3.53;;;;;;;;;;4974204;28;20050;-65
2021/08/17 07:10:26;;;;;;;10.65;4.15;;;;;;;;;;4973452;28;20170;-65
2021/08/17 07:13:12;;;;;;;11.07;4.82;;;;;;;;;;4993447;28;20049;-64
2021/08/17 07:15:57;;;;;;;8.02;3.83;;;;;;;;;;4993240;28;20486;-64
2021/08/17 07:18:42;;;;;;;13.60;4.28;;;;;;;;;;4993161;28;20109;-65
2021/08/17 07:21:28;;;;;;;9.70;4.13;;;;;;;;;;4990917;28;20180;-65
2021/08/17 07:24:13;;;;;;;9.15;3.67;;;;;;;;;;4972042;28;20046;-64
2021/08/17 07:26:58;;;;;;;14.10;4.13;;;;;;;;;;4972644;28;20053;-65
2021/08/17 07:29:44;;;;;;;9.90;3.92;;;;;;;;;;4970989;28;20066;-65
2021/08/17 07:32:29;;;;;;;10.07;3.88;;;;;;;;;;4972804;28;20153;-64
2021/08/17 07:35:17;;;;;;;7.60;3.55;;;;;;;;;;4973267;28;20588;-65
2021/08/17 07:38:02;;;;;;;9.27;4.28;;;;;;;;;;4973476;28;20424;-65
2021/08/17 07:40:48;;;;;;;8.20;3.80;;;;;;;;;;4973618;28;20055;-65
2021/08/17 07:43:33;;;;;;;12.52;5.25;;;;;;;;;;4989265;28;20184;-65
2021/08/17 07:46:19;;;;;;;11.88;4.28;;;;;;;;;;4985817;28;20645;-64
2021/08/17 07:49:04;;;;;;;12.40;5.40;;;;;;;;;;4992815;28;20065;-64
2021/08/17 07:51:50;;;;;;;10.10;4.50;;;;;;;;;;4983968;28;20081;-65
2021/08/17 07:54:35;;;;;;;16.80;5.63;;;;;;;;;;4971415;28;20061;-64
2021/08/17 07:57:20;;;;;;;14.80;6.18;;;;;;;;;;4969718;28;20540;-65
2021/08/17 08:00:07;;;;;;;11.82;4.72;;;;;;;;;;4972189;28;20050;-64
2021/08/17 08:02:52;;;;;;;13.95;6.25;;;;;;;;;;4972580;28;20042;-64
2021/08/17 08:05:38;;;;;;;12.07;5.63;;;;;;;;;;4972730;28;20046;-64
2021/08/17 08:08:23;;;;;;;10.75;5.70;;;;;;;;;;4972890;28;20047;-64
2021/08/17 08:11:09;;;;;;;16.42;6.28;;;;;;;;;;4970985;28;20050;-65
2021/08/17 08:13:56;;;;;;;14.10;7.05;;;;;;;;;;4971866;28;20179;-64
2021/08/17 08:16:42;;;;;;;13.23;6.65;;;;;;;;;;4986191;28;20113;-65
2021/08/17 08:19:28;;;;;;;14.35;6.82;;;;;;;;;;4975177;28;20425;-64
2021/08/17 08:22:13;;;;;;;17.50;7.93;;;;;;;;;;4977271;28;20054;-65
2021/08/17 08:24:58;;;;;;;14.38;6.85;;;;;;;;;;4992988;28;20132;-64
2021/08/17 08:27:44;;;;;;;12.77;7.07;;;;;;;;;;4996531;28;20146;-64
2021/08/17 08:30:29;;;;;;;15.82;6.85;;;;;;;;;;4996406;28;20058;-65
2021/08/17 08:33:15;;;;;;;16.98;6.72;;;;;;;;;;4994837;28;20116;-64
2021/08/17 08:36:00;;;;;;;19.13;7.90;;;;;;;;;;4996377;28;20057;-64
2021/08/17 08:38:45;;;;;;;16.13;7.20;;;;;;;;;;4996262;28;20050;-65
2021/08/17 08:41:31;;;;;;;17.38;7.82;;;;;;;;;;4996008;28;20080;-64
2021/08/17 08:44:18;;;;;;;18.35;8.13;;;;;;;;;;4990168;28;20046;-64
2021/08/17 08:47:04;;;;;;;15.93;6.90;;;;;;;;;;4975063;28;20047;-64
2021/08/17 08:49:50;;;;;;;16.13;8.02;;;;;;;;;;4975447;28;20043;-64
2021/08/17 08:52:35;;;;;;;18.40;8.48;;;;;;;;;;4973656;28;20508;-64
2021/08/17 08:55:21;;;;;;;15.32;7.82;;;;;;;;;;4975546;28;20182;-64
2021/08/17 08:58:06;;;;;;;14.10;7.38;;;;;;;;;;4975023;28;20051;-64
2021/08/17 09:00:52;;;;;;;15.77;7.97;;;;;;;;;;4975911;28;20069;-64
2021/08/17 09:03:41;;;;;;;16.10;7.63;;;;;;;;;;4975927;28;20042;-64
2021/08/17 09:06:27;;;;;;;17.77;8.55;;;;;;;;;;4993142;28;20073;-64
2021/08/17 09:09:14;;;;;;;17.50;9.02;;;;;;;;;;4995719;28;20150;-64
2021/08/17 09:11:59;;;;;;;16.67;8.52;;;;;;;;;;4995618;28;20156;-64
2021/08/17 09:14:45;;;;;;;14.20;8.40;;;;;;;;;;4984438;28;20511;-64
2021/08/17 09:17:30;;;;;;;18.38;9.48;;;;;;;;;;4973265;28;20163;-64
2021/08/17 09:20:16;;;;;;;18.52;9.02;;;;;;;;;;4973699;28;20050;-64
2021/08/17 09:23:20;;;;;;;16.50;8.63;;;;;;;;;;4974378;28;20090;-64
2021/08/17 09:26:21;;;;;;;21.05;8.77;;;;;;;;;;4970916;28;20424;-63
2021/08/17 09:29:07;;;;;;;13.82;8.73;;;;;;;;;;4974545;28;20069;-63
2021/08/17 09:31:52;;;;;;;19.33;9.25;;;;;;;;;;4974389;28;20125;-64
2021/08/17 09:34:37;;;;;;;21.40;9.25;;;;;;;;;;4974401;28;20058;-64
2021/08/17 09:37:29;;;;;;;17.92;9.25;;;;;;;;;;4973001;28;20047;-63
2021/08/17 09:40:15;;;;;;;13.20;7.97;;;;;;;;;;4972828;28;20433;-64
2021/08/17 09:43:16;;;;;;;15.00;8.95;;;;;;;;;;4972217;28;20050;-63
2021/08/17 09:46:10;;;;;;;19.17;9.13;;;;;;;;;;4972397;28;20050;-63
2021/08/17 09:48:56;;;;;;;17.55;9.35;;;;;;;;;;4972960;28;20050;-64
2021/08/17 09:51:42;;;;;;;15.70;9.30;;;;;;;;;;4974571;28;20053;-63
2021/08/17 09:54:27;;;;;;;15.70;8.73;;;;;;;;;;4973945;28;20497;-63
2021/08/17 09:57:12;;;;;;;21.92;9.63;;;;;;;;;;4969028;28;20055;-63
2021/08/17 09:59:58;;;;;;;18.30;9.18;;;;;;;;;;4974591;28;20054;-63
2021/08/17 10:02:45;;;;;;;14.68;8.90;;;;;;;;;;4973863;28;20117;-63
2021/08/17 10:05:31;;;;;;;20.33;10.50;;;;;;;;;;4973968;28;20051;-63
2021/08/17 10:08:16;;;;;;;16.30;10.05;;;;;;;;;;4971385;28;20494;-63
2021/08/17 10:11:02;;;;;;;17.75;9.20;;;;;;;;;;4973910;28;20567;-63
2021/08/17 10:13:47;;;;;;;16.17;10.30;;;;;;;;;;4971840;28;20057;-64
2021/08/17 10:16:33;;;;;;;16.67;9.88;;;;;;;;;;4973439;28;20552;-62
2021/08/17 10:19:22;;;;;;;14.77;9.30;;;;;;;;;;4973722;28;20065;-62
2021/08/17 10:22:07;;;;;;;15.15;10.00;;;;;;;;;;4972624;28;20050;-63
2021/08/17 10:24:52;;;;;;;17.55;9.85;;;;;;;;;;4974169;28;20046;-62
2021/08/17 10:27:38;;;;;;;19.70;9.85;;;;;;;;;;4955041;28;20049;-62
2021/08/17 10:30:25;;;;;;;13.13;8.90;;;;;;;;;;4959490;28;20057;-62
2021/08/17 10:33:10;;;;;;;13.23;8.38;;;;;;;;;;4974249;28;20053;-63
2021/08/17 10:35:56;;;;;;;12.10;8.18;;;;;;;;;;4975205;28;20539;-63
2021/08/17 10:38:42;;;;;;;15.18;8.60;;;;;;;;;;4992633;28;20065;-63
2021/08/17 10:41:31;;;;;;;13.93;8.25;;;;;;;;;;4993425;28;20054;-64
2021/08/17 10:44:24;;;;;;;12.95;6.47;;;;;;;;;;4993065;28;20046;-63
2021/08/17 10:47:12;;;;;;;;;;;;;;;;;;4981425;28;20076;-63
2021/08/17 10:49:58;;;;;;;10.60;6.78;;;;;;;;;;4974010;28;19922;-62
2021/08/17 10:52:44;;;;;;;13.77;6.75;;;;;;;;;;4972663;28;20061;-63
2021/08/17 10:55:34;;;;;;;11.85;6.32;;;;;;;;;;4973788;28;20054;-63
2021/08/17 10:58:19;;;;;;;10.43;7.05;;;;;;;;;;4990209;28;20497;-63
2021/08/17 11:01:04;;;;;;;9.27;6.55;;;;;;;;;;4982481;28;20042;-63
2021/08/17 11:03:51;;;;;;;10.45;6.60;;;;;;;;;;4973475;28;20062;-63
2021/08/17 11:06:40;;;;;;;9.70;6.78;;;;;;;;;;4972460;28;20125;-63
2021/08/17 11:09:30;;;;;;;13.15;7.13;;;;;;;;;;4955861;28;20182;-63
2021/08/17 11:12:15;;;;;;;12.00;7.32;;;;;;;;;;4956298;28;20054;-63
2021/08/17 11:15:01;;;;;;;10.85;7.53;;;;;;;;;;4958367;28;20047;-63
2021/08/17 11:17:46;;;;;;;11.80;7.28;;;;;;;;;;4971814;28;20051;-62
2021/08/17 11:20:32;;;;;;;7.97;6.13;;;;;;;;;;4982847;28;20054;-63
2021/08/17 11:23:20;;;;;;;11.25;6.35;;;;;;;;;;4989531;28;20070;-63
2021/08/17 11:26:08;;;;;;;11.73;7.07;;;;;;;;;;4973047;28;20056;-63
2021/08/17 11:28:53;;;;;;;10.35;6.60;;;;;;;;;;4973731;28;20064;-63
2021/08/17 11:31:46;;;;;;;10.25;7.10;;;;;;;;;;4972524;28;20039;-63
2021/08/17 11:34:31;;;;;;;;;;;;;;;;;;4973192;28;20267;-64
2021/08/17 11:37:16;;;;;;;12.30;7.32;;;;;;;;;;4974070;28;19922;-63
2021/08/17 11:40:02;;;;;;;10.68;7.32;;;;;;;;;;4974883;28;20049;-63
2021/08/17 11:42:49;;;;;;;8.80;6.45;;;;;;;;;;4954668;28;20050;-63
2021/08/17 11:45:39;;;;;;;11.70;6.07;;;;;;;;;;4971132;28;20630;-63
2021/08/17 11:48:24;;;;;;;10.38;6.28;;;;;;;;;;4971479;28;20047;-63
2021/08/17 11:51:10;;;;;;;13.13;6.72;;;;;;;;;;4973352;28;20039;-63
2021/08/17 11:53:55;;;;;;;11.30;6.07;;;;;;;;;;4969890;28;20122;-63
2021/08/17 11:56:41;;;;;;;13.32;7.45;;;;;;;;;;4971241;28;20046;-63
2021/08/17 11:59:26;;;;;;;13.13;6.70;;;;;;;;;;4972047;28;20194;-63
2021/08/17 12:02:12;;;;;;;12.68;6.60;;;;;;;;;;4972974;28;20031;-62
2021/08/17 12:05:01;;;;;;;11.27;6.38;;;;;;;;;;4971908;28;20069;-62
2021/08/17 12:07:47;;;;;;;16.45;7.10;;;;;;;;;;4968838;28;20105;-63
2021/08/17 12:10:33;;;;;;;11.43;5.88;;;;;;;;;;4965225;28;20058;-61
2021/08/17 12:13:20;;;;;;;9.60;5.93;;;;;;;;;;4971931;28;20129;-64
2021/08/17 12:16:06;;;;;;;9.38;5.63;;;;;;;;;;4969681;28;20117;-63
2021/08/17 12:18:54;;;;;;;8.77;5.57;;;;;;;;;;4971159;28;20042;-63
2021/08/17 12:21:40;;;;;;;9.90;6.28;;;;;;;;;;4970814;28;20042;-62
2021/08/17 12:24:30;;;;;;;12.77;5.75;;;;;;;;;;4983639;28;20047;-63
2021/08/17 12:27:21;;;;;;;10.18;4.97;;;;;;;;;;4971839;28;20070;-65
2021/08/17 12:30:08;;;;;;;7.47;4.88;;;;;;;;;;4972978;28;20051;-65
2021/08/17 12:32:54;;;;;;;12.48;6.35;;;;;;;;;;4983275;28;20058;-64
2021/08/17 12:35:39;;;;;;;9.23;5.22;;;;;;;;;;4992876;28;20058;-64
2021/08/17 12:38:25;;;;;;;8.63;4.40;;;;;;;;;;4984883;28;20045;-64
2021/08/17 12:41:10;;;;;;;6.82;4.45;;;;;;;;;;4969464;28;20054;-63
2021/08/17 12:43:55;;;;;;;7.70;3.90;;;;;;;;;;4987912;28;20081;-64
2021/08/17 12:46:56;;;;;;;8.38;4.55;;;;;;;;;;4992056;28;20563;-64
2021/08/17 12:49:43;;;;;;;13.23;4.35;;;;;;;;;;4953527;28;20433;-64
2021/08/17 12:52:41;;;;;;;8.55;4.10;;;;;;;;;;4960011;28;20382;-63
2021/08/17 12:55:27;;;;;;;6.95;3.70;;;;;;;;;;4988634;28;20057;-64
2021/08/17 12:58:13;;;;;;;7.78;3.58;;;;;;;;;;4971374;28;20055;-64
2021/08/17 13:00:58;;;;;;;8.60;3.33;;;;;;;;;;4972328;28;20190;-63
2021/08/17 13:03:44;;;;;;;6.72;3.78;;;;;;;;;;4976541;28;20130;-64
2021/08/17 13:06:29;;;;;;;5.70;3.63;;;;;;;;;;4973639;28;20482;-64
2021/08/17 13:09:15;;;;;;;7.40;3.50;;;;;;;;;;4973777;28;20162;-65
2021/08/17 13:12:00;;;;;;;5.97;3.00;;;;;;;;;;4975281;28;20046;-64
2021/08/17 13:14:46;;;;;;;6.70;3.95;;;;;;;;;;4974583;28;20528;-64
2021/08/17 13:17:31;;;;;;;4.63;2.88;;;;;;;;;;4973634;28;20501;-64
2021/08/17 13:20:20;;;;;;;6.65;3.30;;;;;;;;;;4973708;28;20525;-64
2021/08/17 13:23:06;;;;;;;5.18;3.60;;;;;;;;;;4974759;28;20047;-65
2021/08/17 13:25:51;;;;;;;8.27;3.45;;;;;;;;;;4956026;28;20187;-64
2021/08/17 13:28:37;;;;;;;5.82;3.63;;;;;;;;;;4972916;28;20061;-66
2021/08/17 13:31:22;;;;;;;5.45;3.40;;;;;;;;;;4973627;28;20050;-65
2021/08/17 13:34:07;;;;;;;10.82;3.28;;;;;;;;;;4973606;28;20043;-64
2021/08/17 13:36:53;;;;;;;5.82;3.72;;;;;;;;;;4974631;28;20117;-63
2021/08/17 13:39:38;;;;;;;5.50;3.45;;;;;;;;;;4973778;28;20047;-63
2021/08/17 13:42:23;;;;;;;5.90;3.45;;;;;;;;;;4974592;28;20070;-62
2021/08/17 13:45:09;;;;;;;7.03;3.17;;;;;;;;;;4972647;28;20054;-63
2021/08/17 13:47:54;;;;;;;5.50;3.10;;;;;;;;;;4973831;28;20039;-63
2021/08/17 13:50:40;;;;;;;7.28;2.67;;;;;;;;;;4955844;28;20080;-62
2021/08/17 13:53:25;;;;;;;6.00;2.55;;;;;;;;;;4955891;28;20078;-62
2021/08/17 13:56:11;;;;;;;5.05;2.80;;;;;;;;;;4985506;28;20424;-63
2021/08/17 13:58:56;;;;;;;4.82;2.70;;;;;;;;;;4995007;28;20058;-62
2021/08/17 14:01:42;;;;;;;5.07;2.83;;;;;;;;;;4994012;28;20047;-63
2021/08/17 14:04:28;;;;;;;4.68;2.85;;;;;;;;;;4993761;28;20424;-65
2021/08/17 14:07:13;;;;;;;4.75;2.67;;;;;;;;;;4994739;28;20038;-65
2021/08/17 14:09:59;;;;;;;4.82;2.00;;;;;;;;;;4994460;28;20489;-65
2021/08/17 14:12:44;;;;;;;2.88;1.60;;;;;;;;;;4994115;28;20121;-65
2021/08/17 14:15:30;;;;;;;4.78;1.85;;;;;;;;;;4992300;28;20038;-65
2021/08/17 14:18:15;;;;;;;3.45;1.65;;;;;;;;;;4994367;28;20043;-65
2021/08/17 14:21:01;;;;;;;4.07;1.95;;;;;;;;;;4994632;28;20097;-65
2021/08/17 14:23:46;;;;;;;4.07;1.85;;;;;;;;;;4994463;28;20046;-65
2021/08/17 14:26:32;;;;;;;3.10;1.90;;;;;;;;;;4993327;28;20057;-63
2021/08/17 14:29:17;;;;;;;4.20;2.08;;;;;;;;;;4994409;28;20058;-63
2021/08/17 14:32:03;;;;;;;4.22;2.10;;;;;;;;;;4993895;28;20065;-63
2021/08/17 14:34:48;;;;;;;2.33;1.77;;;;;;;;;;4994194;28;20161;-63
2021/08/17 14:37:33;;;;;;;5.22;2.00;;;;;;;;;;4992509;28;20120;-65
2021/08/17 14:40:19;;;;;;;4.70;1.75;;;;;;;;;;4993642;28;20046;-64
2021/08/17 14:43:05;;;;;;;3.60;1.65;;;;;;;;;;4993505;28;20046;-65
2021/08/17 14:45:50;;;;;;;3.35;1.67;;;;;;;;;;4992836;28;20508;-65
2021/08/17 14:48:35;;;;;;;2.72;1.88;;;;;;;;;;4992088;28;20150;-65
2021/08/17 14:51:20;;;;;;;3.17;1.58;;;;;;;;;;4992108;28;20520;-65
2021/08/17 14:54:06;;;;;;;2.58;1.60;;;;;;;;;;4993631;28;20065;-65
2021/08/17 14:56:52;;;;;;;2.25;1.65;;;;;;;;;;4991971;28;20165;-65
2021/08/17 14:59:37;;;;;;;4.88;2.00;;;;;;;;;;4992413;28;20043;-65
2021/08/17 15:02:23;;;;;;;2.70;1.85;;;;;;;;;;4990686;28;20081;-65
2021/08/17 15:05:08;;;;;;;2.88;2.08;;;;;;;;;;4993094;28;20116;-65
2021/08/17 15:07:53;;;;;;;4.45;2.42;;;;;;;;;;4990918;28;20049;-64
2021/08/17 15:10:39;;;;;;;4.97;2.30;;;;;;;;;;4993681;28;20489;-64
2021/08/17 15:13:24;;;;;;;3.53;1.98;;;;;;;;;;4993442;28;20046;-64
2021/08/17 15:16:09;;;;;;;2.78;1.83;;;;;;;;;;4992907;28;20684;-64
2021/08/17 15:18:55;;;;;;;3.35;2.42;;;;;;;;;;4991840;28;20054;-64
2021/08/17 15:21:40;;;;;;;2.38;1.60;;;;;;;;;;4992482;28;20038;-63
2021/08/17 15:24:27;;;;;;;2.78;1.63;;;;;;;;;;4992110;28;20519;-64
2021/08/17 15:27:13;;;;;;;4.60;1.95;;;;;;;;;;4984917;28;20051;-64
2021/08/17 15:29:59;;;;;;;3.45;1.83;;;;;;;;;;4979648;28;20049;-63
2021/08/17 15:32:45;;;;;;;3.42;2.17;;;;;;;;;;4972451;28;20494;-64
2021/08/17 15:35:30;;;;;;;3.88;2.10;;;;;;;;;;4972863;28;20572;-63
2021/08/17 15:38:15;;;;;;;3.38;2.00;;;;;;;;;;4972260;28;20497;-63
2021/08/17 15:41:01;;;;;;;3.33;1.77;;;;;;;;;;4953680;28;20055;-64
2021/08/17 15:43:46;;;;;;;2.85;1.10;;;;;;;;;;4966115;28;20105;-63
2021/08/17 15:46:31;;;;;;;1.92;1.20;;;;;;;;;;4969628;28;20047;-63
2021/08/17 15:49:17;;;;;;;4.72;1.63;;;;;;;;;;4971154;28;20189;-64
2021/08/17 15:52:02;;;;;;;3.05;1.45;;;;;;;;;;4972954;28;20046;-63
2021/08/17 15:54:48;;;;;;;3.28;1.95;;;;;;;;;;4984997;28;20081;-63
2021/08/17 15:57:33;;;;;;;3.50;1.50;;;;;;;;;;4992152;28;20408;-63
2021/08/17 16:00:19;;;;;;;2.50;1.65;;;;;;;;;;4991364;28;20563;-63
2021/08/17 16:03:04;;;;;;;3.78;1.20;;;;;;;;;;4969419;28;20577;-63
2021/08/17 16:05:50;;;;;;;2.70;1.70;;;;;;;;;;4974790;28;20049;-63
2021/08/17 16:08:35;;;;;;;2.03;1.10;;;;;;;;;;4966181;28;20054;-63
2021/08/17 16:11:20;;;;;;;2.17;1.33;;;;;;;;;;4970189;28;20413;-63
2021/08/17 16:14:05;;;;;;;4.80;1.50;;;;;;;;;;4970357;28;20058;-63
2021/08/17 16:16:51;;;;;;;2.53;0.90;;;;;;;;;;4990051;28;20092;-63
2021/08/17 16:19:36;;;;;;;2.85;1.20;;;;;;;;;;4990578;28;20045;-63
2021/08/17 16:22:22;;;;;;;7.72;1.40;;;;;;;;;;4988976;28;20416;-64
2021/08/17 16:25:07;;;;;;;2.65;0.90;;;;;;;;;;4976374;28;20081;-64
2021/08/17 16:27:52;;;;;;;2.13;0.95;;;;;;;;;;4957851;28;20062;-63